Ulaanbaatar, Mongolia

1:31 PM ULAT on October 26, 2014 (GMT +0800)
Buyant-Ukhaa | Change Station
CLOSE
Current Station
Airport
Location: Ulaanbaatar,
Elevation: 4364 ft
Nearby Weather Stations

Elev 4364 ft 47.83 °N, 106.78 °E | Updated 1 minute ago

Mostly Cloudy
Mostly Cloudy
41 °F
Feels Like 34 °F
N
13
Wind Variable Wind from SSE

Today
High -- | Low -- °F
--% Chance of Precip.
Yesterday
High -- | Low -- °F
Precip. -- in
7:27 AM 5:45 PM
Waxing Crescent, 6% visible
Pressure 30.33 in
Visibility 6.2 miles
Clouds Few 3300 ft
Mostly Cloudy 10000 ft
Windchill 34 °F
Dew Point -2 °F
Humidity 16%
Rainfall 0.05 in
Snow Depth Not available.
UV 1 out of 12
Pollen Not available.
Air Quality Not available.
Flu Activity Not available.
METAR ZMUB 260530Z 16006MPS 130V190 9999 FEW033 BKN100 05/M19 Q1027 NOSIG RMK QFE662.2 17 MOP

More Conditions Fewer Conditions

Pressure 30.33 in
Visibility 6.2 miles
Clouds Few 3300 ft
Mostly Cloudy 10000 ft
Windchill 34 °F
Dew Point -2 °F
Humidity 16%
Rainfall 0.05 in
Snow Depth Not available.
UV 1 out of 12
Pollen Not available.
Air Quality Not available.
Flu Activity Not available.
METAR ZMUB 260530Z 16006MPS 130V190 9999 FEW033 BKN100 05/M19 Q1027 NOSIG RMK QFE662.2 17 MOP

More Conditions Fewer Conditions

10-Day Weather Forecast

Almanac

Astronomy

Oct. 26, 2014 Rise Set
Actual Time 7:27 AM ULAT 5:45 PM ULAT
Civil Twilight 6:55 AM ULAT 6:17 PM ULAT
Nautical Twilight 6:19 AM ULAT 6:53 PM ULAT
Astronomical Twilight 5:43 AM ULAT 7:29 PM ULAT
Moon 9:40 AM ULAT 7:22 PM ULAT
Length of Visible Light 11h 21m
Length of Day
10h 17m
Tomorrow will be 3m 13s shorter.
Waxing Crescent, 6% of the Moon is Illuminated
Today
Waxing Crescent
Oct 30
First Quarter
Nov 6
Full
Nov 14
Last Quarter
Nov 22
New

Yesterday's Extremes

Country Highs Country Lows

Community

WunderPhotos

Upload Photos

1,765,112 photos uploaded!

Nearby

Snow Depth

Not available.

Earthquake Activity

City Distance Mag. Time & Date
No recent earthquake activity has been reported nearby.
Minimum magnitude displayed is 2.5.

Coastal Water Temperatures

Place Temperature
No Stations Reporting

Nearby Weather Stations